HomeShort term forecast

Short term forecast

Graphical weather forecast for the next 48 hours for Montreal:
Short term forecast
This weather forecast is automatically refreshed every 3 hours.

Hourly Experimental Forecast for the next 48 hours ®

Overall summary: Snow (1–3 cm.) tonight and tomorrow morning.

 Date & Hour   Temp   Feel   Baro   Hum   Speed & Bearing   Wind Gust   Precip.%   Precip.   Visibility   Cloud cover   Conditions 
 30/11/2021 - 07:00  -6.5°C  -9.6°C  1012.9 hPa  91%  6.2 km/h   11.6 km/h  66%  0.03 mm/h  16.1km  68%  Flurries 
 30/11/2021 - 08:00  -6.0°C  -9.1°C  1012.9 hPa  91%  6.4 km/h   12.9 km/h  67%  0.02 mm/h  16.1km  70%  Flurries 
 30/11/2021 - 09:00  -5.1°C  -8.5°C  1013.0 hPa  89%  7.3 km/h   13.4 km/h  0%  --  16.1km  86%  Mostly Cloudy 
 30/11/2021 - 10:00  -4.2°C  -7.6°C  1013.0 hPa  88%  8.1 km/h   14.3 km/h  0%  --  16.1km  80%  Mostly Cloudy 
 30/11/2021 - 11:00  -3.2°C  -6.7°C  1012.6 hPa  85%  8.7 km/h   16.0 km/h  0%  --  16.1km  78%  Mostly Cloudy 
 30/11/2021 - 12:00  -2.0°C  -5.6°C  1011.8 hPa  81%  9.6 km/h   18.3 km/h  0%  --  16.1km  85%  Mostly Cloudy 
 30/11/2021 - 13:00  -1.4°C  -4.8°C  1011.1 hPa  77%  9.7 km/h   17.7 km/h  0%  --  16.1km  85%  Mostly Cloudy 
 30/11/2021 - 14:00  -1.1°C  -4.4°C  1010.7 hPa  75%  9.5 km/h   18.2 km/h  0%  --  16.1km  89%  Overcast 
 30/11/2021 - 15:00  -1.2°C  -4.3°C  1010.8 hPa  75%  8.5 km/h   19.7 km/h  0%  --  16.1km  81%  Mostly Cloudy 
 30/11/2021 - 16:00  -1.6°C  -4.1°C  1010.8 hPa  77%  6.6 km/h   17.5 km/h  0%  --  16.1km  91%  Overcast 
 30/11/2021 - 17:00  -2.0°C  -4.0°C  1010.7 hPa  80%  5.3 km/h   13.9 km/h  0%  --  16.1km  81%  Mostly Cloudy 
 30/11/2021 - 18:00  -2.0°C  -4.0°C  1010.7 hPa  81%  5.3 km/h   9.3 km/h  0%  --  16.1km  95%  Overcast 
 30/11/2021 - 19:00  -2.0°C  -4.6°C  1010.7 hPa  82%  6.7 km/h   10.9 km/h  0%  --  16.1km  82%  Mostly Cloudy 
 30/11/2021 - 20:00  -1.9°C  -4.7°C  1010.4 hPa  83%  7.5 km/h   14.6 km/h  5%  0.03 mm/h  16.1km  91%  Overcast 
 30/11/2021 - 21:00  -1.5°C  -4.6°C  1009.6 hPa  84%  8.3 km/h   16.8 km/h  10%  0.06 mm/h  16.1km  93%  Overcast 
 30/11/2021 - 22:00  -1.0°C  -4.3°C  1009.1 hPa  85%  9.1 km/h   18.6 km/h  12%  0.08 mm/h  7.4km  95%  Overcast 
 30/11/2021 - 23:00  -0.7°C  -4.1°C  1008.5 hPa  85%  9.9 km/h   18.9 km/h  16%  0.13 mm/h  5.1km  95%  Overcast 
 01/12/2021 - 00:00  -0.4°C  -4.0°C  1008.1 hPa  85%  11.1 km/h   22.1 km/h  24%  0.28 mm/h  3.6km  94%  Overcast 
 01/12/2021 - 01:00  -0.1°C  -4.0°C  1008.1 hPa  86%  12.1 km/h   24.2 km/h  32%  0.42 mm/h  2.1km  96%  Snow 
 01/12/2021 - 02:00  0.1°C  -3.9°C  1008.1 hPa  87%  12.9 km/h   27.9 km/h  33%  0.39 mm/h  2.3km  97%  Possible Light Snow 
 01/12/2021 - 03:00  0.3°C  -3.7°C  1007.9 hPa  89%  13.1 km/h   33.7 km/h  28%  0.31 mm/h  3.5km  97%  Possible Light Snow 
 01/12/2021 - 04:00  0.2°C  -4.1°C  1008.1 hPa  91%  14.8 km/h   37.1 km/h  31%  0.36 mm/h  4.2km  99%  Possible Light Snow 
 01/12/2021 - 05:00  0.1°C  -4.7°C  1008.7 hPa  91%  16.7 km/h   41.9 km/h  26%  0.17 mm/h  5.5km  98%  Possible Light Snow 
 01/12/2021 - 06:00  -0.2°C  -5.4°C  1009.7 hPa  90%  19.5 km/h   42.2 km/h  19%  0.11 mm/h  16.1km  97%  Overcast 
 01/12/2021 - 07:00  -0.5°C  -6.0°C  1010.8 hPa  90%  21.0 km/h   39.6 km/h  12%  0.06 mm/h  16.1km  97%  Overcast 
 01/12/2021 - 08:00  -0.6°C  -6.4°C  1012.1 hPa  86%  22.9 km/h   38.8 km/h  6%  0.03 mm/h  16.1km  92%  Overcast 
 01/12/2021 - 09:00  -0.9°C  -6.8°C  1013.4 hPa  87%  23.5 km/h   37.1 km/h  8%  0.03 mm/h  16.1km  78%  Mostly Cloudy 
 01/12/2021 - 10:00  -1.1°C  -7.1°C  1014.5 hPa  89%  23.9 km/h   35.2 km/h  8%  0.03 mm/h  16.1km  74%  Mostly Cloudy 
 01/12/2021 - 11:00  -1.2°C  -7.3°C  1015.0 hPa  86%  24.1 km/h   34.6 km/h  5%  0.02 mm/h  16.1km  71%  Mostly Cloudy 
 01/12/2021 - 12:00  -1.4°C  -7.6°C  1015.5 hPa  83%  23.9 km/h   33.9 km/h  3%  0.01 mm/h  16.1km  65%  Mostly Cloudy 
 01/12/2021 - 13:00  -1.6°C  -7.4°C  1016.8 hPa  79%  21.3 km/h   30.6 km/h  0%  --  16.1km  61%  Mostly Cloudy 
 01/12/2021 - 14:00  -1.7°C  -7.1°C  1017.1 hPa  77%  18.4 km/h   29.3 km/h  0%  --  16.1km  46%  Partly Cloudy 
 01/12/2021 - 15:00  -2.0°C  -6.8°C  1017.3 hPa  75%  14.7 km/h   28.3 km/h  0%  --  16.1km  58%  Partly Cloudy 
 01/12/2021 - 16:00  -2.3°C  -6.4°C  1017.4 hPa  76%  11.5 km/h   26.4 km/h  0%  --  16.1km  38%  Partly Cloudy 
 01/12/2021 - 17:00  -2.6°C  -6.1°C  1017.6 hPa  78%  9.1 km/h   23.0 km/h  0%  --  16.1km  70%  Mostly Cloudy 
 01/12/2021 - 18:00  -2.6°C  -5.5°C  1017.7 hPa  80%  7.3 km/h   18.6 km/h  0%  --  16.1km  55%  Partly Cloudy 
 01/12/2021 - 19:00  -2.9°C  -6.4°C  1017.6 hPa  79%  8.9 km/h   22.3 km/h  0%  --  16.1km  89%  Overcast 
 01/12/2021 - 20:00  -3.1°C  -6.9°C  1016.7 hPa  80%  9.6 km/h   24.2 km/h  3%  0.01 mm/h  16.1km  73%  Mostly Cloudy 
 01/12/2021 - 21:00  -3.1°C  -7.0°C  1016.5 hPa  82%  10.1 km/h   25.4 km/h  7%  0.08 mm/h  16.1km  87%  Mostly Cloudy 
 01/12/2021 - 22:00  -2.8°C  -6.8°C  1015.9 hPa  82%  10.7 km/h   24.8 km/h  11%  0.13 mm/h  16.1km  89%  Overcast 
 01/12/2021 - 23:00  -2.3°C  -6.6°C  1015.1 hPa  79%  12.1 km/h   27.1 km/h  8%  0.09 mm/h  16.1km  90%  Overcast 
 02/12/2021 - 00:00  -1.7°C  -6.0°C  1014.2 hPa  77%  12.6 km/h   24.1 km/h  4%  0.03 mm/h  14.8km  91%  Overcast 
 02/12/2021 - 01:00  -0.8°C  -5.2°C  1012.6 hPa  79%  14.3 km/h   26.0 km/h  5%  0.03 mm/h  16.1km  99%  Overcast 
 02/12/2021 - 02:00  -0.3°C  -5.0°C  1011.5 hPa  81%  16.1 km/h   31.5 km/h  8%  0.09 mm/h  14.0km  100%  Overcast 
 02/12/2021 - 03:00  0.1°C  -4.8°C  1010.1 hPa  83%  17.4 km/h   33.8 km/h  15%  0.20 mm/h  13.8km  100%  Overcast 
 02/12/2021 - 04:00  0.4°C  -4.6°C  1008.7 hPa  84%  18.9 km/h   36.7 km/h  16%  0.25 mm/h  14.0km  100%  Overcast 
 02/12/2021 - 05:00  0.7°C  -4.3°C  1007.1 hPa  85%  19.6 km/h   39.8 km/h  15%  0.22 mm/h  14.1km  95%  Overcast 
 02/12/2021 - 06:00  1.0°C  -4.0°C  1005.7 hPa  85%  19.6 km/h   40.2 km/h  14%  0.19 mm/h  14.5km  100%  Overcast 

 

Past weather and reports

Past weatherFind in this section the past weather conditions, weather archive, graphics, reports and statistics.

Current conditions

Current weather condition for MontrealAll you need to know about the current weather conditions for Montreal. Weather data is updated every 10 minutes.

Weather forecast

Current Montreal weatherSince 2004, celinium.com website has provided accurate weather forecast for Montreal's island.